Time;durP1;ratioP1;P1;durP2;ratioP2;P2;SDS_P1;SDS_P2;PMS_P1;PMS_P2;Temp;Humidity;BMP_temperature;BMP_pressure;BME280_temperature;BME280_humidity;BME280_pressure;Samples;Min_cycle;Max_cycle;Signal;HPM_P1;HPM_P2
2020/12/10 00:00:17;;;;;;;20.60;18.50;;;2.20;99.90;;;;;;4997282;28;20917;-77
2020/12/10 00:02:44;;;;;;;19.20;17.20;;;2.20;99.90;;;;;;4995936;28;20489;-77
2020/12/10 00:05:12;;;;;;;18.93;17.10;;;2.20;99.90;;;;;;4997436;28;20499;-78
2020/12/10 00:07:39;;;;;;;18.10;16.40;;;2.20;99.90;;;;;;4997086;28;20489;-77
2020/12/10 00:10:06;;;;;;;19.67;17.73;;;2.20;99.90;;;;;;4995842;28;20450;-77
2020/12/10 00:12:32;;;;;;;18.57;16.87;;;2.20;99.90;;;;;;4998162;28;20437;-76
2020/12/10 00:14:59;;;;;;;19.40;17.50;;;2.10;99.90;;;;;;4996519;28;20475;-77
2020/12/10 00:17:26;;;;;;;20.37;17.37;;;2.10;99.90;;;;;;4996267;28;20481;-77
2020/12/10 00:19:54;;;;;;;18.93;17.03;;;2.00;99.90;;;;;;4996549;28;20448;-77
2020/12/10 00:22:21;;;;;;;20.03;18.03;;;2.10;99.90;;;;;;4997297;28;20470;-77
2020/12/10 00:24:47;;;;;;;20.27;18.27;;;2.00;99.90;;;;;;4996343;28;20891;-78
2020/12/10 00:27:14;;;;;;;22.67;20.47;;;2.00;99.90;;;;;;4996019;28;21017;-77
2020/12/10 00:29:41;;;;;;;23.83;21.50;;;2.00;99.90;;;;;;4996484;28;20477;-77
2020/12/10 00:32:11;;;;;;;21.00;19.10;;;2.10;99.90;;;;;;4997979;28;20501;-78
2020/12/10 00:34:37;;;;;;;19.33;17.70;;;2.00;99.90;;;;;;4996109;28;20540;-77
2020/12/10 00:37:05;;;;;;;20.20;18.07;;;2.00;99.90;;;;;;4996674;28;20477;-77
2020/12/10 00:39:32;;;;;;;21.20;19.17;;;2.00;99.90;;;;;;4996018;28;20458;-78
2020/12/10 00:41:58;;;;;;;20.07;18.30;;;2.00;99.90;;;;;;4996247;28;20574;-77
2020/12/10 00:44:24;;;;;;;22.50;20.37;;;2.00;99.90;;;;;;4996099;28;20947;-77
2020/12/10 00:46:51;;;;;;;22.47;20.37;;;1.90;99.90;;;;;;4996240;28;20490;-78
2020/12/10 00:49:20;;;;;;;23.20;21.00;;;1.90;99.90;;;;;;4996058;28;20536;-77
2020/12/10 00:51:47;;;;;;;22.90;20.70;;;1.90;99.90;;;;;;4995588;28;20444;-77
2020/12/10 00:54:14;;;;;;;22.97;20.83;;;1.90;99.90;;;;;;4996468;28;20472;-78
2020/12/10 00:56:41;;;;;;;25.03;22.73;;;1.90;99.90;;;;;;4996269;28;21050;-77
2020/12/10 00:59:07;;;;;;;24.77;22.47;;;1.90;99.90;;;;;;4995681;28;20484;-77
2020/12/10 01:01:33;;;;;;;18.07;16.17;;;1.90;99.90;;;;;;4996428;28;20452;-77
2020/12/10 01:04:00;;;;;;;24.70;22.40;;;1.90;99.90;;;;;;4996497;28;20499;-77
2020/12/10 01:06:26;;;;;;;23.57;21.47;;;1.80;99.90;;;;;;4996002;28;20519;-77
2020/12/10 01:08:52;;;;;;;20.77;18.73;;;1.80;99.90;;;;;;4997418;28;20456;-77
2020/12/10 01:11:26;;;;;;;27.37;25.07;;;1.80;99.90;;;;;;4996367;28;20446;-78
2020/12/10 01:13:52;;;;;;;22.40;20.30;;;1.80;99.90;;;;;;4997001;28;20484;-77
2020/12/10 01:16:18;;;;;;;23.43;21.03;;;1.80;99.90;;;;;;4996291;28;20445;-76
2020/12/10 01:18:45;;;;;;;22.27;20.07;;;1.80;99.90;;;;;;4995380;28;20526;-77
2020/12/10 01:21:11;;;;;;;21.57;19.67;;;1.70;99.90;;;;;;4997569;28;20458;-77
2020/12/10 01:23:37;;;;;;;24.00;21.60;;;1.70;99.90;;;;;;4996021;28;20506;-77
2020/12/10 01:26:03;;;;;;;23.77;21.70;;;1.70;99.90;;;;;;4995505;28;20472;-76
2020/12/10 01:28:31;;;;;;;22.73;20.77;;;1.70;99.90;;;;;;4997196;28;20447;-77
2020/12/10 01:30:57;;;;;;;22.40;20.27;;;1.70;99.90;;;;;;4995795;28;20441;-77
2020/12/10 01:33:23;;;;;;;21.70;19.70;;;1.70;99.90;;;;;;4997507;28;20441;-78
2020/12/10 01:35:49;;;;;;;23.10;20.90;;;1.70;99.90;;;;;;4996878;28;20448;-77
2020/12/10 01:38:16;;;;;;;22.17;19.97;;;1.70;99.90;;;;;;4996293;28;20456;-77
2020/12/10 01:40:49;;;;;;;24.20;21.80;;;1.70;99.90;;;;;;4998843;28;20479;-77
2020/12/10 01:43:15;;;;;;;21.47;19.27;;;1.70;99.90;;;;;;5001014;28;20436;-78
2020/12/10 01:45:42;;;;;;;19.23;17.37;;;1.70;99.90;;;;;;5000009;28;20445;-77
2020/12/10 01:48:09;;;;;;;19.90;17.87;;;1.80;99.90;;;;;;5000734;28;20464;-77
2020/12/10 01:50:36;;;;;;;20.30;18.27;;;1.80;99.90;;;;;;5000837;28;20500;-77
2020/12/10 01:53:03;;;;;;;20.73;18.63;;;1.80;99.90;;;;;;5000616;28;20496;-77
2020/12/10 01:55:29;;;;;;;19.97;18.07;;;1.80;99.90;;;;;;4999983;28;20481;-78
2020/12/10 01:57:56;;;;;;;20.63;18.60;;;1.80;99.90;;;;;;5001012;28;20464;-77
2020/12/10 02:00:22;;;;;;;23.20;20.97;;;1.80;99.90;;;;;;4999988;28;20484;-77
2020/12/10 02:02:55;;;;;;;23.03;20.73;;;1.80;99.90;;;;;;5001064;28;20428;-77
2020/12/10 02:05:22;;;;;;;24.47;22.17;;;1.80;99.90;;;;;;5000899;28;20472;-78
2020/12/10 02:07:48;;;;;;;24.57;21.93;;;1.80;99.90;;;;;;5000136;28;20464;-77
2020/12/10 02:10:14;;;;;;;25.50;23.00;;;1.80;99.90;;;;;;5000382;28;20433;-77
2020/12/10 02:12:41;;;;;;;24.73;22.43;;;1.80;99.90;;;;;;5000088;28;20976;-77
2020/12/10 02:15:07;;;;;;;25.33;22.63;;;1.90;99.90;;;;;;4999949;28;20900;-78
2020/12/10 02:17:34;;;;;;;21.73;19.60;;;1.90;99.90;;;;;;4999168;28;20467;-77
2020/12/10 02:20:01;;;;;;;23.07;20.87;;;1.90;99.90;;;;;;4999434;28;20495;-77
2020/12/10 02:22:27;;;;;;;21.87;19.87;;;1.90;99.90;;;;;;5000692;28;20442;-77
2020/12/10 02:24:54;;;;;;;23.27;20.87;;;1.90;99.90;;;;;;5000732;28;20479;-76
2020/12/10 02:27:21;;;;;;;24.03;20.93;;;1.90;99.90;;;;;;5028523;22;20880;-80
2020/12/10 02:29:47;;;;;;;21.13;19.03;;;1.90;99.90;;;;;;5012205;28;20450;-80
2020/12/10 02:32:13;;;;;;;24.23;21.47;;;2.00;99.90;;;;;;5013258;28;20440;-80
2020/12/10 02:34:40;;;;;;;23.13;20.83;;;1.90;99.90;;;;;;5013904;28;20474;-81
2020/12/10 02:37:06;;;;;;;22.90;20.80;;;2.00;99.90;;;;;;5007877;28;20503;-81
2020/12/10 02:39:32;;;;;;;25.00;22.50;;;2.00;99.90;;;;;;4992687;28;20445;-81
2020/12/10 02:41:59;;;;;;;23.83;21.63;;;2.00;99.90;;;;;;4994564;28;20473;-80
2020/12/10 02:44:26;;;;;;;25.47;23.03;;;2.00;99.90;;;;;;4993210;28;20495;-81
2020/12/10 02:46:52;;;;;;;24.27;22.07;;;1.90;99.90;;;;;;4994127;28;20545;-80
2020/12/10 02:49:18;;;;;;;22.73;20.57;;;1.90;99.90;;;;;;4992494;28;20449;-80
2020/12/10 02:51:44;;;;;;;21.83;19.73;;;2.00;99.90;;;;;;4992840;28;20448;-80
2020/12/10 02:54:11;;;;;;;23.93;21.43;;;1.90;99.90;;;;;;4994108;28;20535;-80
2020/12/10 02:56:37;;;;;;;23.13;20.83;;;1.90;99.90;;;;;;4993108;28;20877;-81
2020/12/10 02:59:04;;;;;;;23.17;20.90;;;1.90;99.90;;;;;;4990368;28;20457;-81
2020/12/10 03:01:35;;;;;;;22.43;20.20;;;1.90;99.90;;;;;;4991939;28;20445;-81
2020/12/10 03:04:02;;;;;;;21.60;19.50;;;1.90;99.90;;;;;;4992966;28;21096;-81
2020/12/10 03:06:28;;;;;;;20.80;18.87;;;1.90;99.90;;;;;;4993838;28;20810;-80
2020/12/10 03:08:54;;;;;;;20.73;18.73;;;1.90;99.90;;;;;;4992204;28;20513;-79
2020/12/10 03:11:21;;;;;;;22.63;20.43;;;1.90;99.90;;;;;;4992369;28;20529;-81
2020/12/10 03:13:47;;;;;;;21.87;19.67;;;2.00;99.90;;;;;;4992938;28;20507;-80
2020/12/10 03:16:14;;;;;;;21.23;19.33;;;2.00;99.90;;;;;;4993791;28;20428;-81
2020/12/10 03:18:40;;;;;;;21.97;19.87;;;2.00;99.90;;;;;;4991908;28;20469;-80
2020/12/10 03:21:06;;;;;;;22.10;20.00;;;1.90;99.90;;;;;;4993731;28;20666;-80
2020/12/10 03:23:33;;;;;;;21.90;19.70;;;1.90;99.90;;;;;;4993720;28;20504;-80
2020/12/10 03:25:59;;;;;;;22.07;19.87;;;1.90;99.90;;;;;;4992284;28;20444;-79
2020/12/10 03:28:25;;;;;;;22.97;20.53;;;2.00;99.90;;;;;;4992929;28;20476;-79
2020/12/10 03:30:52;;;;;;;23.67;21.47;;;1.90;99.90;;;;;;4988205;28;20453;-79
2020/12/10 03:33:19;;;;;;;23.40;21.20;;;2.00;99.90;;;;;;4993646;28;20452;-79
2020/12/10 03:35:46;;;;;;;25.03;22.87;;;1.90;99.90;;;;;;4993705;28;20536;-81
2020/12/10 03:38:12;;;;;;;23.77;21.40;;;2.00;99.90;;;;;;4993293;28;20448;-79
2020/12/10 03:40:38;;;;;;;22.27;20.40;;;1.90;99.90;;;;;;4994038;28;20463;-77
2020/12/10 03:43:05;;;;;;;20.77;18.80;;;1.90;99.90;;;;;;4993263;28;20470;-78
2020/12/10 03:45:33;;;;;;;22.63;20.73;;;1.90;99.90;;;;;;4990367;28;20946;-78
2020/12/10 03:47:59;;;;;;;23.27;21.37;;;1.90;99.90;;;;;;4990239;28;21050;-78
2020/12/10 03:50:26;;;;;;;24.53;22.30;;;1.90;99.90;;;;;;4994946;28;20857;-81
2020/12/10 03:52:53;;;;;;;22.80;20.60;;;1.90;99.90;;;;;;4996348;28;20437;-81
2020/12/10 03:55:19;;;;;;;23.17;20.87;;;1.90;99.90;;;;;;4993346;28;20476;-78
2020/12/10 03:57:45;;;;;;;22.70;20.50;;;1.80;99.90;;;;;;4994070;28;21008;-76
2020/12/10 04:00:11;;;;;;;21.27;19.37;;;1.90;99.90;;;;;;4992719;28;21017;-79
2020/12/10 04:02:38;;;;;;;21.83;19.93;;;1.90;99.90;;;;;;4988207;28;20448;-78
2020/12/10 04:05:04;;;;;;;20.93;19.13;;;2.00;99.90;;;;;;4971446;28;20460;-79
2020/12/10 04:07:31;;;;;;;21.87;19.97;;;2.00;99.90;;;;;;4972358;28;20457;-79
2020/12/10 04:09:57;;;;;;;22.63;20.43;;;2.00;99.90;;;;;;4973432;28;20443;-78
2020/12/10 04:12:24;;;;;;;20.90;19.00;;;2.00;99.90;;;;;;4992270;28;20438;-79
2020/12/10 04:14:50;;;;;;;22.67;20.77;;;2.00;99.90;;;;;;4992436;28;20503;-81
2020/12/10 04:17:16;;;;;;;23.83;21.63;;;2.00;99.90;;;;;;4993881;28;21023;-80
2020/12/10 04:19:42;;;;;;;23.10;21.00;;;2.00;99.90;;;;;;4991515;28;20451;-80
2020/12/10 04:22:09;;;;;;;25.13;22.70;;;2.00;99.90;;;;;;4991146;28;20449;-79
2020/12/10 04:24:36;;;;;;;25.13;22.63;;;2.00;99.90;;;;;;4992551;28;20958;-78
2020/12/10 04:27:03;;;;;;;26.53;24.23;;;1.90;99.90;;;;;;4994376;28;20499;-81
2020/12/10 04:29:29;;;;;;;25.87;23.37;;;1.90;99.90;;;;;;4992055;28;21023;-81
2020/12/10 04:31:55;;;;;;;24.30;21.90;;;1.90;99.90;;;;;;4992009;28;20464;-80
2020/12/10 04:34:22;;;;;;;23.80;21.50;;;1.90;99.90;;;;;;4990649;28;20543;-80
2020/12/10 04:36:48;;;;;;;27.73;23.70;;;1.90;99.90;;;;;;4991935;28;20453;-81
2020/12/10 04:39:14;;;;;;;26.40;22.30;;;1.90;99.90;;;;;;4991725;28;20461;-81
2020/12/10 04:41:43;;;;;;;25.53;22.90;;;1.90;99.90;;;;;;4990291;28;20450;-80
2020/12/10 04:44:09;;;;;;;28.57;24.13;;;1.90;99.90;;;;;;4992014;28;20427;-80
2020/12/10 04:46:39;;;;;;;25.47;22.97;;;1.90;99.90;;;;;;4991922;28;20496;-78
2020/12/10 04:49:05;;;;;;;26.67;23.90;;;1.90;99.90;;;;;;4991581;28;20450;-78
2020/12/10 04:51:34;;;;;;;25.93;23.27;;;1.90;99.90;;;;;;4991188;28;20495;-77
2020/12/10 04:54:02;;;;;;;27.30;24.40;;;1.90;99.90;;;;;;4991515;28;20510;-78
2020/12/10 04:56:28;;;;;;;34.77;25.07;;;1.90;99.90;;;;;;4991134;28;20518;-80
2020/12/10 04:58:55;;;;;;;26.90;22.97;;;1.80;99.90;;;;;;4991723;28;20820;-81
2020/12/10 05:01:22;;;;;;;25.60;23.10;;;1.80;99.90;;;;;;4991209;28;20439;-80
2020/12/10 05:03:49;;;;;;;25.43;22.93;;;1.80;99.90;;;;;;4992080;28;20452;-81
2020/12/10 05:06:16;;;;;;;26.43;23.83;;;1.80;99.90;;;;;;4991552;28;20444;-78
2020/12/10 05:08:44;;;;;;;26.17;23.53;;;1.80;99.90;;;;;;4993134;28;20507;-78
2020/12/10 05:11:10;;;;;;;25.80;23.40;;;1.80;99.90;;;;;;4991452;28;20442;-78
2020/12/10 05:13:37;;;;;;;26.63;24.03;;;1.90;99.90;;;;;;4991233;28;20452;-80
2020/12/10 05:16:19;;;;;;;26.83;24.03;;;1.90;99.90;;;;;;4991998;28;20503;-81
2020/12/10 05:18:45;;;;;;;27.57;24.70;;;1.90;99.90;;;;;;4991659;28;20454;-81
2020/12/10 05:21:14;;;;;;;28.83;25.83;;;1.90;99.90;;;;;;4990752;28;20516;-80
2020/12/10 05:23:41;;;;;;;29.73;26.37;;;1.90;99.90;;;;;;4991206;28;20441;-81
2020/12/10 05:26:08;;;;;;;27.80;24.93;;;1.90;99.90;;;;;;4992113;28;20433;-80
2020/12/10 05:28:43;;;;;;;34.87;29.13;;;1.90;99.90;;;;;;4989881;28;20518;-80
2020/12/10 05:31:11;;;;;;;37.60;31.60;;;1.80;99.90;;;;;;4991900;28;20445;-81
2020/12/10 05:33:52;;;;;;;38.37;30.50;;;1.80;99.90;;;;;;4990802;28;20822;-80
2020/12/10 05:36:19;;;;;;;37.10;30.40;;;1.80;99.90;;;;;;4990919;28;20439;-80
2020/12/10 05:39:03;;;;;;;38.33;30.73;;;1.80;99.90;;;;;;4990364;28;21171;-81
2020/12/10 05:41:29;;;;;;;38.90;30.47;;;1.80;99.90;;;;;;4991933;28;20438;-81
2020/12/10 05:43:56;;;;;;;40.20;31.33;;;1.70;99.90;;;;;;4990439;28;20969;-81
2020/12/10 05:46:25;;;;;;;40.33;30.43;;;1.70;99.90;;;;;;4990566;28;20448;-80
2020/12/10 05:48:52;;;;;;;41.87;30.03;;;1.70;99.90;;;;;;4991196;28;20546;-80
2020/12/10 05:51:20;;;;;;;37.20;29.37;;;1.70;99.90;;;;;;4991414;28;20483;-80
2020/12/10 05:53:47;;;;;;;41.50;29.67;;;1.70;99.90;;;;;;4991685;28;20941;-81
2020/12/10 05:56:15;;;;;;;38.97;30.07;;;1.70;99.90;;;;;;4991618;28;20527;-82
2020/12/10 05:58:50;;;;;;;38.47;29.97;;;1.70;99.90;;;;;;4989735;28;20464;-81
2020/12/10 06:01:27;;;;;;;39.23;30.37;;;1.70;99.90;;;;;;4991541;28;20463;-81
2020/12/10 06:03:55;;;;;;;36.87;27.87;;;1.70;99.90;;;;;;4991702;28;20432;-81
2020/12/10 06:06:22;;;;;;;41.03;30.03;;;1.70;99.90;;;;;;4990418;28;20452;-80
2020/12/10 06:08:50;;;;;;;38.53;29.40;;;1.70;99.90;;;;;;4989661;28;21006;-79
2020/12/10 06:11:20;;;;;;;45.07;32.53;;;1.80;99.90;;;;;;4989903;28;20459;-80
2020/12/10 06:13:46;;;;;;;37.70;28.90;;;1.80;99.90;;;;;;4991375;28;20444;-80
2020/12/10 06:16:17;;;;;;;38.73;28.20;;;1.80;99.90;;;;;;4991488;28;20563;-80
2020/12/10 06:19:04;;;;;;;40.00;28.17;;;1.80;99.90;;;;;;4990887;28;20957;-79
2020/12/10 06:21:43;;;;;;;35.30;28.50;;;1.80;99.90;;;;;;4990221;28;20452;-80
2020/12/10 06:24:32;;;;;;;39.20;30.43;;;1.80;99.90;;;;;;4991343;28;20959;-79
2020/12/10 06:26:59;;;;;;;39.60;28.93;;;1.80;99.90;;;;;;4992925;28;20500;-80
2020/12/10 06:29:28;;;;;;;38.77;27.77;;;1.80;99.90;;;;;;4993244;28;20450;-79
2020/12/10 06:32:09;;;;;;;37.87;28.20;;;1.80;99.90;;;;;;4993298;28;20453;-80
2020/12/10 06:34:46;;;;;;;37.27;29.03;;;1.80;99.90;;;;;;5001181;28;21102;-80
2020/12/10 06:37:21;;;;;;;40.30;29.83;;;1.80;99.90;;;;;;4997714;28;20880;-81
2020/12/10 06:39:49;;;;;;;38.83;30.10;;;1.80;99.90;;;;;;4998492;28;20489;-81
2020/12/10 06:42:15;;;;;;;38.57;30.97;;;1.80;99.90;;;;;;4996074;28;20788;-80
2020/12/10 06:44:42;;;;;;;50.37;32.17;;;1.80;99.90;;;;;;4995132;28;20950;-80
2020/12/10 06:47:08;;;;;;;46.17;31.47;;;1.80;99.90;;;;;;4997326;28;20456;-80
2020/12/10 06:49:37;;;;;;;42.47;31.43;;;1.70;99.90;;;;;;4994659;28;20443;-81
2020/12/10 06:52:15;;;;;;;39.63;28.73;;;1.70;99.90;;;;;;4994450;28;20470;-80
2020/12/10 06:55:04;;;;;;;38.60;28.87;;;1.70;99.90;;;;;;4993907;28;20538;-80
2020/12/10 06:57:49;;;;;;;43.27;29.53;;;1.80;99.90;;;;;;4994314;28;20455;-81
2020/12/10 07:00:38;;;;;;;40.07;29.93;;;1.80;99.90;;;;;;4993631;28;20448;-81
2020/12/10 07:03:09;;;;;;;39.23;28.80;;;1.80;99.90;;;;;;4993667;28;20451;-80
2020/12/10 07:05:36;;;;;;;36.90;29.13;;;1.80;99.90;;;;;;4993903;28;20957;-81
2020/12/10 07:08:06;;;;;;;37.57;28.70;;;1.80;99.90;;;;;;4995347;28;20518;-80
2020/12/10 07:10:38;;;;;;;35.30;28.23;;;1.90;99.90;;;;;;4993431;28;20440;-81
2020/12/10 07:13:04;;;;;;;40.50;28.53;;;1.90;99.90;;;;;;4994059;28;20971;-81
2020/12/10 07:15:30;;;;;;;39.40;29.77;;;1.90;99.90;;;;;;4995266;28;20520;-80
2020/12/10 07:18:00;;;;;;;40.87;28.33;;;1.80;99.90;;;;;;4993722;28;20895;-81
2020/12/10 07:20:27;;;;;;;39.87;29.50;;;1.80;99.90;;;;;;4994207;28;20442;-80
2020/12/10 07:22:53;;;;;;;39.20;30.10;;;1.80;99.90;;;;;;4993638;28;20442;-80
2020/12/10 07:25:21;;;;;;;40.57;29.23;;;1.80;99.90;;;;;;4994506;28;20850;-81
2020/12/10 07:27:48;;;;;;;40.67;28.63;;;1.80;99.90;;;;;;4993098;28;20500;-81
2020/12/10 07:30:15;;;;;;;41.03;29.27;;;1.80;99.90;;;;;;4993616;28;20904;-81
2020/12/10 07:32:43;;;;;;;40.53;30.93;;;1.80;99.90;;;;;;4992928;28;20866;-82
2020/12/10 07:35:09;;;;;;;43.07;28.77;;;1.80;99.90;;;;;;4993175;28;20480;-81
2020/12/10 07:37:37;;;;;;;39.37;28.33;;;1.80;99.90;;;;;;4993330;28;20996;-81
2020/12/10 07:40:11;;;;;;;41.37;29.63;;;1.80;99.90;;;;;;4991788;28;20441;-81
2020/12/10 07:42:38;;;;;;;42.87;30.13;;;1.80;99.90;;;;;;4992783;28;20456;-81
2020/12/10 07:45:11;;;;;;;36.47;28.70;;;1.80;99.90;;;;;;4992659;28;20438;-81
2020/12/10 07:47:38;;;;;;;39.47;28.70;;;1.90;99.90;;;;;;4992485;28;20484;-82
2020/12/10 07:50:20;;;;;;;40.47;27.90;;;1.90;99.90;;;;;;4991834;28;20448;-79
2020/12/10 07:52:49;;;;;;;43.53;29.90;;;2.00;99.90;;;;;;4993061;28;20538;-81
2020/12/10 07:55:17;;;;;;;36.60;27.43;;;2.00;99.90;;;;;;4992115;28;20563;-81
2020/12/10 07:57:52;;;;;;;34.17;26.83;;;2.00;99.90;;;;;;4993556;28;20451;-81
2020/12/10 08:00:23;;;;;;;42.43;29.37;;;2.00;99.90;;;;;;4991718;28;20449;-81
2020/12/10 08:03:22;;;;;;;40.47;29.20;;;2.00;99.90;;;;;;4992671;28;20508;-82
2020/12/10 08:06:01;;;;;;;46.07;29.13;;;2.00;99.90;;;;;;4991634;28;20438;-82
2020/12/10 08:08:33;;;;;;;41.17;29.00;;;2.00;99.90;;;;;;4992698;28;20969;-81
2020/12/10 08:11:09;;;;;;;40.93;28.03;;;2.00;99.90;;;;;;4993414;28;20499;-81
2020/12/10 08:13:37;;;;;;;42.97;29.90;;;2.00;99.90;;;;;;4991037;28;21029;-81
2020/12/10 08:16:07;;;;;;;41.80;30.57;;;2.00;99.90;;;;;;4993138;28;20533;-81
2020/12/10 08:18:34;;;;;;;42.87;30.53;;;2.00;99.90;;;;;;4992834;28;20543;-80
2020/12/10 08:21:04;;;;;;;44.90;30.40;;;2.00;99.90;;;;;;4991724;28;20449;-81
2020/12/10 08:23:42;;;;;;;47.50;31.80;;;2.00;99.90;;;;;;4991928;28;20443;-80
2020/12/10 08:26:10;;;;;;;45.43;30.30;;;1.90;99.90;;;;;;4991697;28;20437;-80
2020/12/10 08:28:37;;;;;;;45.47;30.90;;;1.90;99.90;;;;;;4993474;28;20463;-81
2020/12/10 08:31:03;;;;;;;44.43;31.33;;;1.90;99.90;;;;;;4991600;28;20449;-81
2020/12/10 08:33:37;;;;;;;40.97;30.57;;;1.90;99.90;;;;;;4993246;28;20855;-81
2020/12/10 08:36:03;;;;;;;41.20;29.37;;;1.90;99.90;;;;;;4991251;28;20487;-80
2020/12/10 08:38:30;;;;;;;38.77;28.60;;;2.00;99.90;;;;;;4990699;28;20529;-81
2020/12/10 08:40:57;;;;;;;39.93;28.67;;;2.10;99.90;;;;;;4991482;28;20451;-81
2020/12/10 08:43:24;;;;;;;39.33;28.03;;;2.10;99.90;;;;;;4991261;28;21113;-81
2020/12/10 08:45:51;;;;;;;38.90;28.27;;;2.20;99.90;;;;;;4992105;28;20456;-81
2020/12/10 08:48:25;;;;;;;37.90;28.33;;;2.30;99.90;;;;;;4990644;28;20462;-81
2020/12/10 08:50:53;;;;;;;40.70;29.93;;;2.30;99.90;;;;;;4991396;28;20451;-81
2020/12/10 08:53:20;;;;;;;42.00;30.53;;;2.20;99.90;;;;;;4992704;28;20431;-81
2020/12/10 08:55:48;;;;;;;42.23;30.90;;;2.30;99.90;;;;;;4990639;28;21085;-81
2020/12/10 08:58:16;;;;;;;41.43;31.47;;;2.30;99.90;;;;;;4990252;28;20466;-81
2020/12/10 09:00:42;;;;;;;40.23;31.30;;;2.30;99.90;;;;;;4990946;28;20459;-81
2020/12/10 09:03:10;;;;;;;38.30;30.37;;;2.30;99.90;;;;;;4991154;28;20452;-81
2020/12/10 09:05:36;;;;;;;40.13;29.77;;;2.30;99.90;;;;;;4990932;28;20515;-81
2020/12/10 09:08:03;;;;;;;41.70;29.97;;;2.40;99.90;;;;;;4992129;28;20604;-81
2020/12/10 09:10:29;;;;;;;42.13;31.63;;;2.40;99.90;;;;;;4990532;28;20502;-80
2020/12/10 09:12:57;;;;;;;40.20;29.27;;;2.40;99.90;;;;;;4990927;28;20452;-81
2020/12/10 09:15:23;;;;;;;46.13;31.23;;;2.40;99.90;;;;;;4990715;28;20486;-82
2020/12/10 09:17:50;;;;;;;45.00;30.60;;;2.40;99.90;;;;;;4990489;28;21027;-80
2020/12/10 09:20:17;;;;;;;44.63;30.33;;;2.40;99.90;;;;;;4990671;28;20449;-81
2020/12/10 09:22:44;;;;;;;40.23;31.20;;;2.40;99.90;;;;;;4990701;28;20439;-81
2020/12/10 09:25:10;;;;;;;40.77;29.63;;;2.40;99.90;;;;;;4991022;28;20439;-81
2020/12/10 09:27:37;;;;;;;45.10;31.53;;;2.50;99.90;;;;;;4991926;28;20459;-81
2020/12/10 09:30:06;;;;;;;42.10;30.70;;;2.50;99.90;;;;;;4990482;28;20455;-81
2020/12/10 09:32:34;;;;;;;43.77;30.43;;;2.60;99.90;;;;;;4992229;28;20434;-81
2020/12/10 09:35:01;;;;;;;44.13;30.00;;;2.50;99.90;;;;;;4991244;28;20836;-81
2020/12/10 09:37:28;;;;;;;37.33;28.43;;;2.60;99.90;;;;;;4991207;28;20471;-81
2020/12/10 09:39:54;;;;;;;42.80;28.27;;;2.60;99.90;;;;;;4991361;28;20441;-81
2020/12/10 09:42:20;;;;;;;43.13;29.57;;;2.70;99.90;;;;;;4990869;28;20510;-81
2020/12/10 09:44:47;;;;;;;36.73;27.93;;;2.70;99.90;;;;;;4992484;28;20425;-80
2020/12/10 09:47:13;;;;;;;43.10;27.90;;;2.70;99.90;;;;;;4992151;28;20523;-81
2020/12/10 09:49:39;;;;;;;38.73;28.43;;;2.70;99.90;;;;;;4991501;28;20444;-82
2020/12/10 09:52:07;;;;;;;40.33;28.80;;;2.80;99.90;;;;;;4992011;28;20449;-81
2020/12/10 09:54:46;;;;;;;41.77;28.73;;;2.80;99.90;;;;;;4990909;28;20453;-81
2020/12/10 09:57:24;;;;;;;39.77;27.30;;;2.70;99.90;;;;;;4992082;28;20452;-81
2020/12/10 09:59:50;;;;;;;37.73;28.57;;;2.70;99.90;;;;;;4990347;28;20440;-81
2020/12/10 10:02:17;;;;;;;38.77;27.60;;;2.60;99.90;;;;;;4994525;28;20447;-81
2020/12/10 10:04:44;;;;;;;39.57;30.60;;;2.60;99.90;;;;;;4995809;28;20851;-81
2020/12/10 10:07:10;;;;;;;39.57;29.27;;;2.60;99.90;;;;;;4994766;28;20460;-81
2020/12/10 10:09:39;;;;;;;43.60;29.27;;;2.60;99.90;;;;;;4993660;28;20473;-81
2020/12/10 10:12:05;;;;;;;42.17;28.93;;;2.60;99.90;;;;;;4994699;28;21015;-81
2020/12/10 10:14:32;;;;;;;39.50;29.83;;;2.60;99.90;;;;;;4994064;28;20461;-82
2020/12/10 10:16:58;;;;;;;42.60;30.30;;;2.70;99.90;;;;;;4994481;28;20507;-82
2020/12/10 10:19:25;;;;;;;46.00;30.10;;;2.60;99.90;;;;;;4992976;28;20449;-81
2020/12/10 10:21:51;;;;;;;39.67;29.43;;;2.50;99.90;;;;;;4993774;28;20447;-81
2020/12/10 10:24:17;;;;;;;43.50;30.10;;;2.50;99.90;;;;;;4993953;28;20454;-81
2020/12/10 10:26:44;;;;;;;41.40;29.33;;;2.50;99.90;;;;;;4994045;28;20488;-81
2020/12/10 10:29:12;;;;;;;46.67;31.50;;;2.50;99.90;;;;;;4994670;28;20444;-81
2020/12/10 10:31:41;;;;;;;40.87;31.00;;;2.50;99.90;;;;;;4994151;28;21047;-80
2020/12/10 10:34:07;;;;;;;39.90;29.13;;;2.50;99.90;;;;;;4994650;28;20506;-81
2020/12/10 10:36:34;;;;;;;39.13;29.83;;;2.60;99.90;;;;;;4994989;28;20894;-81
2020/12/10 10:39:00;;;;;;;39.03;29.47;;;2.60;99.90;;;;;;4994958;28;20495;-82
2020/12/10 10:41:26;;;;;;;41.63;29.67;;;2.50;99.90;;;;;;4995524;28;20433;-81
2020/12/10 10:43:53;;;;;;;36.17;27.13;;;2.60;99.90;;;;;;4993709;28;20456;-81
2020/12/10 10:46:20;;;;;;;40.60;29.57;;;2.70;99.90;;;;;;4993770;28;20438;-81
2020/12/10 10:48:46;;;;;;;43.57;31.33;;;2.60;99.90;;;;;;4994610;28;21028;-80
2020/12/10 10:51:12;;;;;;;41.30;29.30;;;2.60;99.90;;;;;;4993331;28;20878;-81
2020/12/10 10:53:39;;;;;;;40.10;28.67;;;2.60;99.90;;;;;;4993570;28;20475;-82
2020/12/10 10:56:06;;;;;;;44.30;29.93;;;2.60;99.90;;;;;;4994642;28;20513;-81
2020/12/10 10:58:33;;;;;;;43.10;30.40;;;2.60;99.90;;;;;;4993150;28;20475;-82
2020/12/10 11:01:00;;;;;;;44.53;30.00;;;2.60;99.90;;;;;;4995104;28;20499;-81
2020/12/10 11:03:26;;;;;;;41.77;29.43;;;2.60;99.90;;;;;;4994915;28;20635;-81
2020/12/10 11:05:54;;;;;;;35.33;28.60;;;2.60;99.90;;;;;;4987496;28;20808;-81
2020/12/10 11:08:21;;;;;;;40.13;29.20;;;2.60;99.90;;;;;;4985818;28;20543;-82
2020/12/10 11:10:47;;;;;;;39.13;29.23;;;2.70;99.90;;;;;;4993347;28;20452;-82
2020/12/10 11:13:13;;;;;;;42.07;30.87;;;2.70;99.90;;;;;;4993629;28;20449;-82
2020/12/10 11:15:39;;;;;;;39.63;29.70;;;2.70;99.90;;;;;;4993499;28;20859;-82
2020/12/10 11:18:07;;;;;;;49.50;32.23;;;2.70;99.90;;;;;;4994668;28;20866;-81
2020/12/10 11:20:33;;;;;;;43.33;30.97;;;2.70;99.90;;;;;;4992386;28;20448;-82
2020/12/10 11:22:59;;;;;;;38.63;31.10;;;2.70;99.90;;;;;;4993275;28;20441;-81
2020/12/10 11:25:25;;;;;;;38.27;29.80;;;2.80;99.90;;;;;;4993856;28;20503;-82
2020/12/10 11:27:52;;;;;;;36.60;29.20;;;2.70;99.90;;;;;;4992990;28;20472;-81
2020/12/10 11:30:18;;;;;;;40.47;28.70;;;2.70;99.90;;;;;;4994056;28;20436;-81
2020/12/10 11:32:44;;;;;;;39.03;29.23;;;2.70;99.90;;;;;;4993349;28;20440;-82
2020/12/10 11:35:11;;;;;;;41.20;28.87;;;2.80;99.90;;;;;;4992985;28;20473;-81
2020/12/10 11:37:38;;;;;;;36.43;27.97;;;2.80;99.90;;;;;;4992750;28;20532;-81
2020/12/10 11:40:05;;;;;;;38.53;29.30;;;2.80;99.90;;;;;;4991987;28;20445;-82
2020/12/10 11:42:31;;;;;;;35.30;27.77;;;2.80;99.90;;;;;;4993373;28;20452;-81
2020/12/10 11:45:01;;;;;;;34.93;27.53;;;2.80;99.90;;;;;;4993487;28;20931;-82
2020/12/10 11:47:28;;;;;;;39.83;28.90;;;2.80;99.90;;;;;;4993575;28;20488;-81
2020/12/10 11:49:54;;;;;;;39.27;28.90;;;2.80;99.90;;;;;;4992601;28;20956;-82
2020/12/10 11:52:21;;;;;;;38.57;29.63;;;2.80;99.90;;;;;;4994052;28;20444;-81
2020/12/10 11:54:48;;;;;;;39.53;29.27;;;2.80;99.90;;;;;;4992585;28;20446;-82
2020/12/10 11:57:14;;;;;;;39.17;30.60;;;2.80;99.90;;;;;;4992013;28;20459;-81
2020/12/10 11:59:40;;;;;;;37.40;28.67;;;2.90;99.90;;;;;;4993224;28;20439;-80
2020/12/10 12:02:08;;;;;;;41.57;31.37;;;2.90;99.90;;;;;;4993979;28;20486;-81
2020/12/10 12:04:35;;;;;;;39.33;29.50;;;2.80;99.90;;;;;;4992580;28;20506;-81
2020/12/10 12:07:01;;;;;;;41.63;30.53;;;2.80;99.90;;;;;;4992119;28;20749;-81
2020/12/10 12:09:29;;;;;;;39.50;29.60;;;2.70;99.90;;;;;;4991415;28;20451;-82
2020/12/10 12:11:55;;;;;;;43.90;31.07;;;2.80;99.90;;;;;;4993239;28;20472;-82
2020/12/10 12:14:22;;;;;;;38.17;28.97;;;2.70;99.90;;;;;;4993389;28;20429;-81
2020/12/10 12:16:48;;;;;;;40.57;30.00;;;2.80;99.90;;;;;;4992583;28;20541;-82
2020/12/10 12:19:15;;;;;;;33.67;26.87;;;2.80;99.90;;;;;;4995249;28;20915;-82
2020/12/10 12:21:41;;;;;;;35.27;27.27;;;2.80;99.90;;;;;;4995185;28;20873;-80
2020/12/10 12:24:07;;;;;;;33.50;27.93;;;2.80;99.90;;;;;;4993178;28;20445;-80
2020/12/10 12:26:35;;;;;;;37.60;29.03;;;2.80;99.90;;;;;;4991766;28;20978;-80
2020/12/10 12:29:01;;;;;;;37.73;30.00;;;2.80;99.90;;;;;;4992033;28;20432;-80
2020/12/10 12:31:29;;;;;;;34.57;29.47;;;2.70;99.90;;;;;;4991764;28;20497;-81
2020/12/10 12:33:55;;;;;;;36.03;28.80;;;2.80;99.90;;;;;;4991069;28;20444;-80
2020/12/10 12:36:21;;;;;;;38.37;29.67;;;2.70;99.90;;;;;;4992483;28;20480;-80
2020/12/10 12:38:48;;;;;;;36.23;28.27;;;2.70;99.90;;;;;;4990473;28;20463;-81